sensor_id;sensor_type;location;lat;lon;timestamp;P1;durP1;ratioP1;P2;durP2;ratioP2
21959;SDS011;11144;43.030;25.108;2024-01-06T00:00:00;28.23;;;16.13;;
21959;SDS011;11144;43.030;25.108;2024-01-06T00:01:43;33.20;;;16.63;;
21959;SDS011;11144;43.030;25.108;2024-01-06T00:03:17;26.83;;;16.05;;
21959;SDS011;11144;43.030;25.108;2024-01-06T00:04:49;37.08;;;17.65;;
21959;SDS011;11144;43.030;25.108;2024-01-06T00:06:22;35.25;;;18.98;;
21959;SDS011;11144;43.030;25.108;2024-01-06T00:07:55;33.03;;;17.35;;
21959;SDS011;11144;43.030;25.108;2024-01-06T00:09:28;27.33;;;15.13;;
21959;SDS011;11144;43.030;25.108;2024-01-06T00:11:00;27.15;;;15.55;;
21959;SDS011;11144;43.030;25.108;2024-01-06T00:12:35;32.38;;;16.80;;
21959;SDS011;11144;43.030;25.108;2024-01-06T00:14:07;29.50;;;15.13;;
21959;SDS011;11144;43.030;25.108;2024-01-06T00:15:41;25.40;;;13.88;;
21959;SDS011;11144;43.030;25.108;2024-01-06T00:17:15;29.88;;;15.43;;
21959;SDS011;11144;43.030;25.108;2024-01-06T00:18:49;24.20;;;14.07;;
21959;SDS011;11144;43.030;25.108;2024-01-06T00:20:21;24.35;;;12.40;;
21959;SDS011;11144;43.030;25.108;2024-01-06T00:21:55;40.90;;;16.40;;
21959;SDS011;11144;43.030;25.108;2024-01-06T00:23:27;31.17;;;16.08;;
21959;SDS011;11144;43.030;25.108;2024-01-06T00:25:00;26.20;;;13.82;;
21959;SDS011;11144;43.030;25.108;2024-01-06T00:26:33;27.52;;;14.10;;
21959;SDS011;11144;43.030;25.108;2024-01-06T00:28:06;26.80;;;14.75;;
21959;SDS011;11144;43.030;25.108;2024-01-06T00:29:38;32.45;;;16.58;;
21959;SDS011;11144;43.030;25.108;2024-01-06T00:31:11;25.02;;;12.63;;
21959;SDS011;11144;43.030;25.108;2024-01-06T00:32:48;22.95;;;12.45;;
21959;SDS011;11144;43.030;25.108;2024-01-06T00:34:21;22.08;;;10.77;;
21959;SDS011;11144;43.030;25.108;2024-01-06T00:35:54;18.30;;;9.57;;
21959;SDS011;11144;43.030;25.108;2024-01-06T00:37:27;28.85;;;14.35;;
21959;SDS011;11144;43.030;25.108;2024-01-06T00:39:00;27.73;;;14.35;;
21959;SDS011;11144;43.030;25.108;2024-01-06T00:40:35;30.25;;;16.52;;
21959;SDS011;11144;43.030;25.108;2024-01-06T00:42:07;31.58;;;17.27;;
21959;SDS011;11144;43.030;25.108;2024-01-06T00:43:40;37.95;;;18.73;;
21959;SDS011;11144;43.030;25.108;2024-01-06T00:45:13;33.85;;;18.30;;
21959;SDS011;11144;43.030;25.108;2024-01-06T00:46:46;34.03;;;19.90;;
21959;SDS011;11144;43.030;25.108;2024-01-06T00:48:20;39.42;;;19.92;;
21959;SDS011;11144;43.030;25.108;2024-01-06T00:49:53;39.15;;;21.35;;
21959;SDS011;11144;43.030;25.108;2024-01-06T00:51:26;42.75;;;21.23;;
21959;SDS011;11144;43.030;25.108;2024-01-06T00:53:00;35.72;;;20.85;;
21959;SDS011;11144;43.030;25.108;2024-01-06T00:54:33;36.97;;;19.23;;
21959;SDS011;11144;43.030;25.108;2024-01-06T00:56:06;38.17;;;21.33;;
21959;SDS011;11144;43.030;25.108;2024-01-06T00:57:38;37.95;;;20.33;;
21959;SDS011;11144;43.030;25.108;2024-01-06T00:59:12;42.38;;;22.13;;
21959;SDS011;11144;43.030;25.108;2024-01-06T01:00:44;37.22;;;20.25;;
21959;SDS011;11144;43.030;25.108;2024-01-06T01:02:17;38.03;;;21.60;;
21959;SDS011;11144;43.030;25.108;2024-01-06T01:03:51;37.85;;;21.30;;
21959;SDS011;11144;43.030;25.108;2024-01-06T01:05:24;41.22;;;21.13;;
21959;SDS011;11144;43.030;25.108;2024-01-06T01:06:57;39.13;;;21.13;;
21959;SDS011;11144;43.030;25.108;2024-01-06T01:08:30;38.75;;;20.13;;
21959;SDS011;11144;43.030;25.108;2024-01-06T01:10:03;38.40;;;19.55;;
21959;SDS011;11144;43.030;25.108;2024-01-06T01:11:37;36.60;;;20.58;;
21959;SDS011;11144;43.030;25.108;2024-01-06T01:13:09;42.08;;;21.55;;
21959;SDS011;11144;43.030;25.108;2024-01-06T01:14:43;45.78;;;20.52;;
21959;SDS011;11144;43.030;25.108;2024-01-06T01:16:15;42.55;;;21.52;;
21959;SDS011;11144;43.030;25.108;2024-01-06T01:17:48;41.85;;;21.77;;
21959;SDS011;11144;43.030;25.108;2024-01-06T01:19:22;46.10;;;21.40;;
21959;SDS011;11144;43.030;25.108;2024-01-06T01:20:56;43.40;;;21.25;;
21959;SDS011;11144;43.030;25.108;2024-01-06T01:22:28;43.63;;;21.63;;
21959;SDS011;11144;43.030;25.108;2024-01-06T01:24:01;37.45;;;20.98;;
21959;SDS011;11144;43.030;25.108;2024-01-06T01:25:34;38.55;;;21.08;;
21959;SDS011;11144;43.030;25.108;2024-01-06T01:27:07;45.67;;;22.67;;
21959;SDS011;11144;43.030;25.108;2024-01-06T01:28:40;45.90;;;23.38;;
21959;SDS011;11144;43.030;25.108;2024-01-06T01:30:14;58.58;;;28.00;;
21959;SDS011;11144;43.030;25.108;2024-01-06T01:31:46;45.63;;;23.38;;
21959;SDS011;11144;43.030;25.108;2024-01-06T01:33:20;48.10;;;24.25;;
21959;SDS011;11144;43.030;25.108;2024-01-06T01:34:54;48.13;;;25.73;;
21959;SDS011;11144;43.030;25.108;2024-01-06T01:36:27;59.72;;;28.13;;
21959;SDS011;11144;43.030;25.108;2024-01-06T01:37:59;61.15;;;30.88;;
21959;SDS011;11144;43.030;25.108;2024-01-06T01:39:33;62.85;;;30.75;;
21959;SDS011;11144;43.030;25.108;2024-01-06T01:41:05;69.63;;;31.00;;
21959;SDS011;11144;43.030;25.108;2024-01-06T01:42:40;48.05;;;26.60;;
21959;SDS011;11144;43.030;25.108;2024-01-06T01:44:14;50.20;;;26.13;;
21959;SDS011;11144;43.030;25.108;2024-01-06T01:45:48;54.10;;;27.58;;
21959;SDS011;11144;43.030;25.108;2024-01-06T01:47:23;58.55;;;28.20;;
21959;SDS011;11144;43.030;25.108;2024-01-06T01:48:56;52.03;;;26.60;;
21959;SDS011;11144;43.030;25.108;2024-01-06T01:50:33;39.55;;;22.15;;
21959;SDS011;11144;43.030;25.108;2024-01-06T01:52:06;45.25;;;23.30;;
21959;SDS011;11144;43.030;25.108;2024-01-06T01:53:40;34.67;;;20.05;;
21959;SDS011;11144;43.030;25.108;2024-01-06T01:55:13;40.35;;;19.88;;
21959;SDS011;11144;43.030;25.108;2024-01-06T01:56:47;51.58;;;27.75;;
21959;SDS011;11144;43.030;25.108;2024-01-06T01:58:19;51.95;;;26.00;;
21959;SDS011;11144;43.030;25.108;2024-01-06T01:59:52;47.75;;;25.17;;
21959;SDS011;11144;43.030;25.108;2024-01-06T02:01:26;40.03;;;20.00;;
21959;SDS011;11144;43.030;25.108;2024-01-06T02:03:00;40.03;;;21.23;;
21959;SDS011;11144;43.030;25.108;2024-01-06T02:04:35;36.45;;;19.35;;
21959;SDS011;11144;43.030;25.108;2024-01-06T02:06:10;36.97;;;18.25;;
21959;SDS011;11144;43.030;25.108;2024-01-06T02:07:43;37.25;;;19.73;;
21959;SDS011;11144;43.030;25.108;2024-01-06T02:09:17;42.28;;;21.38;;
21959;SDS011;11144;43.030;25.108;2024-01-06T02:10:49;39.08;;;20.52;;
21959;SDS011;11144;43.030;25.108;2024-01-06T02:12:22;42.38;;;21.80;;
21959;SDS011;11144;43.030;25.108;2024-01-06T02:13:55;49.40;;;22.58;;
21959;SDS011;11144;43.030;25.108;2024-01-06T02:15:28;52.13;;;24.88;;
21959;SDS011;11144;43.030;25.108;2024-01-06T02:17:00;51.17;;;25.80;;
21959;SDS011;11144;43.030;25.108;2024-01-06T02:18:33;51.97;;;24.15;;
21959;SDS011;11144;43.030;25.108;2024-01-06T02:20:06;49.63;;;25.92;;
21959;SDS011;11144;43.030;25.108;2024-01-06T02:21:43;71.32;;;34.83;;
21959;SDS011;11144;43.030;25.108;2024-01-06T02:23:18;80.53;;;41.15;;
21959;SDS011;11144;43.030;25.108;2024-01-06T02:24:51;76.05;;;40.67;;
21959;SDS011;11144;43.030;25.108;2024-01-06T02:26:24;65.50;;;31.23;;
21959;SDS011;11144;43.030;25.108;2024-01-06T02:27:56;64.20;;;31.77;;
21959;SDS011;11144;43.030;25.108;2024-01-06T02:29:29;43.45;;;23.85;;
21959;SDS011;11144;43.030;25.108;2024-01-06T02:31:02;39.17;;;21.23;;
21959;SDS011;11144;43.030;25.108;2024-01-06T02:32:36;40.00;;;22.05;;
21959;SDS011;11144;43.030;25.108;2024-01-06T02:34:08;42.47;;;23.58;;
21959;SDS011;11144;43.030;25.108;2024-01-06T02:35:41;53.58;;;26.50;;
21959;SDS011;11144;43.030;25.108;2024-01-06T02:37:14;47.95;;;26.60;;
21959;SDS011;11144;43.030;25.108;2024-01-06T02:38:48;41.78;;;22.52;;
21959;SDS011;11144;43.030;25.108;2024-01-06T02:40:21;39.45;;;20.42;;
21959;SDS011;11144;43.030;25.108;2024-01-06T02:41:54;37.03;;;21.33;;
21959;SDS011;11144;43.030;25.108;2024-01-06T02:43:26;40.58;;;20.80;;
21959;SDS011;11144;43.030;25.108;2024-01-06T02:45:00;54.78;;;26.30;;
21959;SDS011;11144;43.030;25.108;2024-01-06T02:46:33;46.47;;;25.85;;
21959;SDS011;11144;43.030;25.108;2024-01-06T02:48:06;60.38;;;26.33;;
21959;SDS011;11144;43.030;25.108;2024-01-06T02:49:39;60.97;;;29.05;;
21959;SDS011;11144;43.030;25.108;2024-01-06T02:51:12;67.57;;;35.28;;
21959;SDS011;11144;43.030;25.108;2024-01-06T02:52:45;68.10;;;33.53;;
21959;SDS011;11144;43.030;25.108;2024-01-06T02:54:19;74.10;;;37.50;;
21959;SDS011;11144;43.030;25.108;2024-01-06T02:55:52;71.75;;;36.78;;
21959;SDS011;11144;43.030;25.108;2024-01-06T02:57:25;70.28;;;34.58;;
21959;SDS011;11144;43.030;25.108;2024-01-06T02:58:57;63.08;;;33.05;;
21959;SDS011;11144;43.030;25.108;2024-01-06T03:00:31;64.03;;;33.63;;
21959;SDS011;11144;43.030;25.108;2024-01-06T03:02:03;59.30;;;31.17;;
21959;SDS011;11144;43.030;25.108;2024-01-06T03:03:36;58.92;;;27.90;;
21959;SDS011;11144;43.030;25.108;2024-01-06T03:05:10;52.17;;;28.65;;
21959;SDS011;11144;43.030;25.108;2024-01-06T03:06:42;87.90;;;41.42;;
21959;SDS011;11144;43.030;25.108;2024-01-06T03:08:17;52.35;;;28.30;;
21959;SDS011;11144;43.030;25.108;2024-01-06T03:09:51;50.60;;;28.52;;
21959;SDS011;11144;43.030;25.108;2024-01-06T03:11:24;49.40;;;25.98;;
21959;SDS011;11144;43.030;25.108;2024-01-06T03:12:57;46.65;;;23.65;;
21959;SDS011;11144;43.030;25.108;2024-01-06T03:14:30;52.72;;;25.58;;
21959;SDS011;11144;43.030;25.108;2024-01-06T03:16:03;41.53;;;22.40;;
21959;SDS011;11144;43.030;25.108;2024-01-06T03:17:37;37.47;;;18.88;;
21959;SDS011;11144;43.030;25.108;2024-01-06T03:19:10;33.08;;;15.98;;
21959;SDS011;11144;43.030;25.108;2024-01-06T03:20:44;32.30;;;16.38;;
21959;SDS011;11144;43.030;25.108;2024-01-06T03:22:16;24.80;;;15.98;;
21959;SDS011;11144;43.030;25.108;2024-01-06T03:23:51;27.75;;;15.48;;
21959;SDS011;11144;43.030;25.108;2024-01-06T03:25:25;24.67;;;14.38;;
21959;SDS011;11144;43.030;25.108;2024-01-06T03:26:58;26.40;;;14.57;;
21959;SDS011;11144;43.030;25.108;2024-01-06T03:28:30;27.65;;;14.75;;
21959;SDS011;11144;43.030;25.108;2024-01-06T03:30:04;31.85;;;16.38;;
21959;SDS011;11144;43.030;25.108;2024-01-06T03:31:37;32.63;;;16.27;;
21959;SDS011;11144;43.030;25.108;2024-01-06T03:33:14;32.70;;;17.65;;
21959;SDS011;11144;43.030;25.108;2024-01-06T03:34:48;29.23;;;16.52;;
21959;SDS011;11144;43.030;25.108;2024-01-06T03:36:20;30.75;;;16.85;;
21959;SDS011;11144;43.030;25.108;2024-01-06T03:37:53;30.40;;;18.17;;
21959;SDS011;11144;43.030;25.108;2024-01-06T03:39:27;35.00;;;17.30;;
21959;SDS011;11144;43.030;25.108;2024-01-06T03:41:00;29.05;;;15.45;;
21959;SDS011;11144;43.030;25.108;2024-01-06T03:42:34;31.50;;;17.30;;
21959;SDS011;11144;43.030;25.108;2024-01-06T03:44:08;32.30;;;17.42;;
21959;SDS011;11144;43.030;25.108;2024-01-06T03:45:41;33.55;;;19.08;;
21959;SDS011;11144;43.030;25.108;2024-01-06T03:47:14;33.47;;;18.13;;
21959;SDS011;11144;43.030;25.108;2024-01-06T03:48:47;37.92;;;19.13;;
21959;SDS011;11144;43.030;25.108;2024-01-06T03:50:19;34.90;;;18.52;;
21959;SDS011;11144;43.030;25.108;2024-01-06T03:51:53;38.35;;;18.15;;
21959;SDS011;11144;43.030;25.108;2024-01-06T03:53:25;33.85;;;18.10;;
21959;SDS011;11144;43.030;25.108;2024-01-06T03:54:58;35.63;;;19.67;;
21959;SDS011;11144;43.030;25.108;2024-01-06T03:56:32;40.15;;;20.08;;
21959;SDS011;11144;43.030;25.108;2024-01-06T03:58:05;36.95;;;19.55;;
21959;SDS011;11144;43.030;25.108;2024-01-06T03:59:38;44.85;;;20.85;;
21959;SDS011;11144;43.030;25.108;2024-01-06T04:01:11;46.25;;;23.30;;
21959;SDS011;11144;43.030;25.108;2024-01-06T04:02:43;54.40;;;24.50;;
21959;SDS011;11144;43.030;25.108;2024-01-06T04:04:16;54.15;;;27.08;;
21959;SDS011;11144;43.030;25.108;2024-01-06T04:05:49;56.20;;;26.27;;
21959;SDS011;11144;43.030;25.108;2024-01-06T04:07:22;56.17;;;26.73;;
21959;SDS011;11144;43.030;25.108;2024-01-06T04:08:54;47.85;;;24.90;;
21959;SDS011;11144;43.030;25.108;2024-01-06T04:10:28;56.83;;;27.58;;
21959;SDS011;11144;43.030;25.108;2024-01-06T04:12:01;57.17;;;27.95;;
21959;SDS011;11144;43.030;25.108;2024-01-06T04:13:35;56.53;;;27.05;;
21959;SDS011;11144;43.030;25.108;2024-01-06T04:15:07;55.75;;;27.92;;
21959;SDS011;11144;43.030;25.108;2024-01-06T04:16:41;53.42;;;28.10;;
21959;SDS011;11144;43.030;25.108;2024-01-06T04:18:13;52.90;;;28.83;;
21959;SDS011;11144;43.030;25.108;2024-01-06T04:19:47;48.78;;;28.00;;
21959;SDS011;11144;43.030;25.108;2024-01-06T04:21:19;51.00;;;27.95;;
21959;SDS011;11144;43.030;25.108;2024-01-06T04:22:54;62.90;;;31.60;;
21959;SDS011;11144;43.030;25.108;2024-01-06T04:24:26;52.22;;;27.23;;
21959;SDS011;11144;43.030;25.108;2024-01-06T04:26:00;96.57;;;45.55;;
21959;SDS011;11144;43.030;25.108;2024-01-06T04:27:34;92.05;;;43.97;;
21959;SDS011;11144;43.030;25.108;2024-01-06T04:29:07;125.55;;;54.10;;
21959;SDS011;11144;43.030;25.108;2024-01-06T04:30:40;83.57;;;40.78;;
21959;SDS011;11144;43.030;25.108;2024-01-06T04:32:13;59.60;;;31.50;;
21959;SDS011;11144;43.030;25.108;2024-01-06T04:33:45;67.50;;;32.80;;
21959;SDS011;11144;43.030;25.108;2024-01-06T04:35:19;74.43;;;40.25;;
21959;SDS011;11144;43.030;25.108;2024-01-06T04:36:52;63.47;;;32.08;;
21959;SDS011;11144;43.030;25.108;2024-01-06T04:38:26;48.88;;;28.92;;
21959;SDS011;11144;43.030;25.108;2024-01-06T04:39:58;55.35;;;27.85;;
21959;SDS011;11144;43.030;25.108;2024-01-06T04:41:31;60.40;;;30.73;;
21959;SDS011;11144;43.030;25.108;2024-01-06T04:43:05;85.97;;;41.30;;
21959;SDS011;11144;43.030;25.108;2024-01-06T04:44:38;64.00;;;30.75;;
21959;SDS011;11144;43.030;25.108;2024-01-06T04:46:11;54.08;;;28.58;;
21959;SDS011;11144;43.030;25.108;2024-01-06T04:47:44;51.42;;;27.85;;
21959;SDS011;11144;43.030;25.108;2024-01-06T04:49:16;59.92;;;31.63;;
21959;SDS011;11144;43.030;25.108;2024-01-06T04:50:50;62.00;;;32.00;;
21959;SDS011;11144;43.030;25.108;2024-01-06T04:52:22;53.65;;;25.88;;
21959;SDS011;11144;43.030;25.108;2024-01-06T04:53:55;47.97;;;24.23;;
21959;SDS011;11144;43.030;25.108;2024-01-06T04:55:28;48.92;;;25.73;;
21959;SDS011;11144;43.030;25.108;2024-01-06T04:57:01;57.00;;;28.60;;
21959;SDS011;11144;43.030;25.108;2024-01-06T04:58:35;57.15;;;30.88;;
21959;SDS011;11144;43.030;25.108;2024-01-06T05:00:08;61.60;;;28.20;;
21959;SDS011;11144;43.030;25.108;2024-01-06T05:01:42;52.30;;;27.00;;
21959;SDS011;11144;43.030;25.108;2024-01-06T05:03:15;57.58;;;28.85;;
21959;SDS011;11144;43.030;25.108;2024-01-06T05:04:48;62.70;;;33.60;;
21959;SDS011;11144;43.030;25.108;2024-01-06T05:06:21;77.30;;;40.50;;
21959;SDS011;11144;43.030;25.108;2024-01-06T05:07:54;57.03;;;31.60;;
21959;SDS011;11144;43.030;25.108;2024-01-06T05:09:28;52.72;;;29.65;;
21959;SDS011;11144;43.030;25.108;2024-01-06T05:11:00;62.60;;;31.77;;
21959;SDS011;11144;43.030;25.108;2024-01-06T05:12:33;54.55;;;30.42;;
21959;SDS011;11144;43.030;25.108;2024-01-06T05:14:07;55.95;;;29.05;;
21959;SDS011;11144;43.030;25.108;2024-01-06T05:15:40;58.88;;;29.95;;
21959;SDS011;11144;43.030;25.108;2024-01-06T05:17:14;55.35;;;31.42;;
21959;SDS011;11144;43.030;25.108;2024-01-06T05:18:46;115.50;;;55.30;;
21959;SDS011;11144;43.030;25.108;2024-01-06T05:20:20;82.38;;;43.30;;
21959;SDS011;11144;43.030;25.108;2024-01-06T05:21:52;79.10;;;38.92;;
21959;SDS011;11144;43.030;25.108;2024-01-06T05:23:26;55.65;;;29.13;;
21959;SDS011;11144;43.030;25.108;2024-01-06T05:24:58;56.83;;;27.20;;
21959;SDS011;11144;43.030;25.108;2024-01-06T05:26:31;85.35;;;44.72;;
21959;SDS011;11144;43.030;25.108;2024-01-06T05:28:04;54.25;;;29.10;;
21959;SDS011;11144;43.030;25.108;2024-01-06T05:29:38;107.78;;;53.45;;
21959;SDS011;11144;43.030;25.108;2024-01-06T05:31:11;146.05;;;67.25;;
21959;SDS011;11144;43.030;25.108;2024-01-06T05:32:44;106.90;;;51.20;;
21959;SDS011;11144;43.030;25.108;2024-01-06T05:34:16;34.33;;;21.00;;
21959;SDS011;11144;43.030;25.108;2024-01-06T05:35:50;41.95;;;21.45;;
21959;SDS011;11144;43.030;25.108;2024-01-06T05:37:22;39.90;;;23.35;;
21959;SDS011;11144;43.030;25.108;2024-01-06T05:38:57;35.90;;;20.45;;
21959;SDS011;11144;43.030;25.108;2024-01-06T05:40:29;35.05;;;20.40;;
21959;SDS011;11144;43.030;25.108;2024-01-06T05:42:02;35.67;;;20.58;;
21959;SDS011;11144;43.030;25.108;2024-01-06T05:43:35;36.58;;;19.60;;
21959;SDS011;11144;43.030;25.108;2024-01-06T05:45:11;39.30;;;18.67;;
21959;SDS011;11144;43.030;25.108;2024-01-06T05:46:44;37.10;;;16.73;;
21959;SDS011;11144;43.030;25.108;2024-01-06T05:48:17;46.80;;;21.67;;
21959;SDS011;11144;43.030;25.108;2024-01-06T05:49:50;60.50;;;29.95;;
21959;SDS011;11144;43.030;25.108;2024-01-06T05:51:23;57.97;;;29.80;;
21959;SDS011;11144;43.030;25.108;2024-01-06T05:52:55;66.70;;;31.25;;
21959;SDS011;11144;43.030;25.108;2024-01-06T05:54:29;55.78;;;30.20;;
21959;SDS011;11144;43.030;25.108;2024-01-06T05:56:01;47.75;;;24.55;;
21959;SDS011;11144;43.030;25.108;2024-01-06T05:57:34;33.97;;;18.92;;
21959;SDS011;11144;43.030;25.108;2024-01-06T05:59:07;77.70;;;31.27;;
21959;SDS011;11144;43.030;25.108;2024-01-06T06:00:42;39.13;;;20.70;;
21959;SDS011;11144;43.030;25.108;2024-01-06T06:02:17;42.95;;;24.52;;
21959;SDS011;11144;43.030;25.108;2024-01-06T06:03:49;38.15;;;21.63;;
21959;SDS011;11144;43.030;25.108;2024-01-06T06:05:23;37.67;;;21.88;;
21959;SDS011;11144;43.030;25.108;2024-01-06T06:06:58;30.13;;;17.17;;
21959;SDS011;11144;43.030;25.108;2024-01-06T06:08:33;27.90;;;15.77;;
21959;SDS011;11144;43.030;25.108;2024-01-06T06:10:07;29.77;;;17.77;;
21959;SDS011;11144;43.030;25.108;2024-01-06T06:11:40;30.67;;;17.80;;
21959;SDS011;11144;43.030;25.108;2024-01-06T06:13:14;32.20;;;16.20;;
21959;SDS011;11144;43.030;25.108;2024-01-06T06:14:46;31.00;;;16.15;;
21959;SDS011;11144;43.030;25.108;2024-01-06T06:16:21;29.55;;;15.25;;
21959;SDS011;11144;43.030;25.108;2024-01-06T06:17:53;30.73;;;16.80;;
21959;SDS011;11144;43.030;25.108;2024-01-06T06:19:27;29.90;;;17.52;;
21959;SDS011;11144;43.030;25.108;2024-01-06T06:21:00;29.80;;;16.27;;
21959;SDS011;11144;43.030;25.108;2024-01-06T06:22:35;30.42;;;17.48;;
21959;SDS011;11144;43.030;25.108;2024-01-06T06:24:08;35.53;;;19.38;;
21959;SDS011;11144;43.030;25.108;2024-01-06T06:25:40;29.48;;;17.17;;
21959;SDS011;11144;43.030;25.108;2024-01-06T06:27:14;34.25;;;17.58;;
21959;SDS011;11144;43.030;25.108;2024-01-06T06:28:46;35.72;;;18.38;;
21959;SDS011;11144;43.030;25.108;2024-01-06T06:30:20;40.97;;;22.02;;
21959;SDS011;11144;43.030;25.108;2024-01-06T06:31:53;47.85;;;23.90;;
21959;SDS011;11144;43.030;25.108;2024-01-06T06:33:27;50.92;;;29.08;;
21959;SDS011;11144;43.030;25.108;2024-01-06T06:34:59;60.42;;;31.00;;
21959;SDS011;11144;43.030;25.108;2024-01-06T06:36:33;84.22;;;49.42;;
21959;SDS011;11144;43.030;25.108;2024-01-06T06:38:05;67.72;;;39.80;;
21959;SDS011;11144;43.030;25.108;2024-01-06T06:39:39;80.03;;;37.63;;
21959;SDS011;11144;43.030;25.108;2024-01-06T06:41:12;76.60;;;37.97;;
21959;SDS011;11144;43.030;25.108;2024-01-06T06:42:44;73.53;;;37.72;;
21959;SDS011;11144;43.030;25.108;2024-01-06T06:44:18;128.15;;;29.95;;
21959;SDS011;11144;43.030;25.108;2024-01-06T06:45:50;110.35;;;25.90;;
21959;SDS011;11144;43.030;25.108;2024-01-06T06:47:25;51.08;;;16.48;;
21959;SDS011;11144;43.030;25.108;2024-01-06T06:48:58;67.35;;;30.23;;
21959;SDS011;11144;43.030;25.108;2024-01-06T06:50:32;129.50;;;43.83;;
21959;SDS011;11144;43.030;25.108;2024-01-06T06:52:04;123.18;;;36.35;;
21959;SDS011;11144;43.030;25.108;2024-01-06T06:53:38;66.07;;;23.75;;
21959;SDS011;11144;43.030;25.108;2024-01-06T06:55:11;66.28;;;23.15;;
21959;SDS011;11144;43.030;25.108;2024-01-06T06:56:44;27.20;;;13.75;;
21959;SDS011;11144;43.030;25.108;2024-01-06T06:58:16;33.90;;;15.30;;
21959;SDS011;11144;43.030;25.108;2024-01-06T06:59:50;29.40;;;14.60;;
21959;SDS011;11144;43.030;25.108;2024-01-06T07:01:22;26.77;;;13.65;;
21959;SDS011;11144;43.030;25.108;2024-01-06T07:02:57;28.15;;;14.40;;
21959;SDS011;11144;43.030;25.108;2024-01-06T07:04:30;39.28;;;19.33;;
21959;SDS011;11144;43.030;25.108;2024-01-06T07:06:03;35.53;;;19.02;;
21959;SDS011;11144;43.030;25.108;2024-01-06T07:07:36;22.20;;;13.27;;
21959;SDS011;11144;43.030;25.108;2024-01-06T07:09:09;32.63;;;18.17;;
21959;SDS011;11144;43.030;25.108;2024-01-06T07:10:42;40.83;;;22.75;;
21959;SDS011;11144;43.030;25.108;2024-01-06T07:12:15;34.78;;;18.77;;
21959;SDS011;11144;43.030;25.108;2024-01-06T07:13:48;36.78;;;22.35;;
21959;SDS011;11144;43.030;25.108;2024-01-06T07:15:22;26.80;;;12.55;;
21959;SDS011;11144;43.030;25.108;2024-01-06T07:16:56;35.13;;;18.35;;
21959;SDS011;11144;43.030;25.108;2024-01-06T07:18:30;30.77;;;17.98;;
21959;SDS011;11144;43.030;25.108;2024-01-06T07:20:03;55.85;;;28.75;;
21959;SDS011;11144;43.030;25.108;2024-01-06T07:21:36;57.47;;;30.77;;
21959;SDS011;11144;43.030;25.108;2024-01-06T07:23:09;41.97;;;24.00;;
21959;SDS011;11144;43.030;25.108;2024-01-06T07:24:42;37.33;;;19.33;;
21959;SDS011;11144;43.030;25.108;2024-01-06T07:26:15;42.50;;;22.73;;
21959;SDS011;11144;43.030;25.108;2024-01-06T07:27:49;48.47;;;24.10;;
21959;SDS011;11144;43.030;25.108;2024-01-06T07:29:26;49.42;;;24.45;;
21959;SDS011;11144;43.030;25.108;2024-01-06T07:30:58;56.25;;;25.25;;
21959;SDS011;11144;43.030;25.108;2024-01-06T07:32:33;49.05;;;26.70;;
21959;SDS011;11144;43.030;25.108;2024-01-06T07:34:07;68.70;;;33.55;;
21959;SDS011;11144;43.030;25.108;2024-01-06T07:35:41;62.20;;;32.47;;
21959;SDS011;11144;43.030;25.108;2024-01-06T07:37:15;66.70;;;34.58;;
21959;SDS011;11144;43.030;25.108;2024-01-06T07:38:48;63.00;;;33.75;;
21959;SDS011;11144;43.030;25.108;2024-01-06T07:40:21;64.75;;;35.13;;
21959;SDS011;11144;43.030;25.108;2024-01-06T07:41:55;60.13;;;34.78;;
21959;SDS011;11144;43.030;25.108;2024-01-06T07:43:28;58.22;;;32.72;;
21959;SDS011;11144;43.030;25.108;2024-01-06T07:45:00;64.80;;;35.33;;
21959;SDS011;11144;43.030;25.108;2024-01-06T07:46:34;57.42;;;33.40;;
21959;SDS011;11144;43.030;25.108;2024-01-06T07:48:07;58.50;;;33.72;;
21959;SDS011;11144;43.030;25.108;2024-01-06T07:49:42;45.55;;;25.58;;
21959;SDS011;11144;43.030;25.108;2024-01-06T07:51:14;107.97;;;51.38;;
21959;SDS011;11144;43.030;25.108;2024-01-06T07:52:48;99.32;;;46.33;;
21959;SDS011;11144;43.030;25.108;2024-01-06T07:54:21;113.47;;;48.20;;
21959;SDS011;11144;43.030;25.108;2024-01-06T07:55:54;108.15;;;51.47;;
21959;SDS011;11144;43.030;25.108;2024-01-06T07:57:27;117.07;;;53.97;;
21959;SDS011;11144;43.030;25.108;2024-01-06T07:59:00;150.73;;;63.22;;
21959;SDS011;11144;43.030;25.108;2024-01-06T08:00:33;126.72;;;59.28;;
21959;SDS011;11144;43.030;25.108;2024-01-06T08:02:07;108.38;;;56.28;;
21959;SDS011;11144;43.030;25.108;2024-01-06T08:03:40;107.93;;;55.28;;
21959;SDS011;11144;43.030;25.108;2024-01-06T08:05:14;111.72;;;54.80;;
21959;SDS011;11144;43.030;25.108;2024-01-06T08:06:47;105.03;;;53.10;;
21959;SDS011;11144;43.030;25.108;2024-01-06T08:08:21;100.15;;;54.70;;
21959;SDS011;11144;43.030;25.108;2024-01-06T08:09:55;83.80;;;47.28;;
21959;SDS011;11144;43.030;25.108;2024-01-06T08:11:27;82.80;;;43.80;;
21959;SDS011;11144;43.030;25.108;2024-01-06T08:13:00;103.68;;;52.67;;
21959;SDS011;11144;43.030;25.108;2024-01-06T08:14:33;125.53;;;63.60;;
21959;SDS011;11144;43.030;25.108;2024-01-06T08:16:06;89.60;;;46.83;;
21959;SDS011;11144;43.030;25.108;2024-01-06T08:17:38;82.45;;;43.58;;
21959;SDS011;11144;43.030;25.108;2024-01-06T08:19:12;67.10;;;35.22;;
21959;SDS011;11144;43.030;25.108;2024-01-06T08:20:46;114.95;;;60.40;;
21959;SDS011;11144;43.030;25.108;2024-01-06T08:22:20;106.22;;;53.75;;
21959;SDS011;11144;43.030;25.108;2024-01-06T08:23:53;76.63;;;38.78;;
21959;SDS011;11144;43.030;25.108;2024-01-06T08:25:25;41.08;;;23.48;;
21959;SDS011;11144;43.030;25.108;2024-01-06T08:26:59;46.67;;;26.83;;
21959;SDS011;11144;43.030;25.108;2024-01-06T08:28:31;32.70;;;17.92;;
21959;SDS011;11144;43.030;25.108;2024-01-06T08:30:05;29.60;;;15.15;;
21959;SDS011;11144;43.030;25.108;2024-01-06T08:31:38;25.45;;;14.20;;
21959;SDS011;11144;43.030;25.108;2024-01-06T08:33:12;25.85;;;12.65;;
21959;SDS011;11144;43.030;25.108;2024-01-06T08:34:44;25.00;;;12.98;;
21959;SDS011;11144;43.030;25.108;2024-01-06T08:36:19;22.63;;;14.90;;
21959;SDS011;11144;43.030;25.108;2024-01-06T08:37:51;30.55;;;16.52;;
21959;SDS011;11144;43.030;25.108;2024-01-06T08:39:24;32.65;;;18.33;;
21959;SDS011;11144;43.030;25.108;2024-01-06T08:40:57;64.50;;;30.40;;
21959;SDS011;11144;43.030;25.108;2024-01-06T08:42:30;67.53;;;35.45;;
21959;SDS011;11144;43.030;25.108;2024-01-06T08:44:02;102.05;;;51.60;;
21959;SDS011;11144;43.030;25.108;2024-01-06T08:45:36;60.88;;;33.78;;
21959;SDS011;11144;43.030;25.108;2024-01-06T08:47:08;68.13;;;38.00;;
21959;SDS011;11144;43.030;25.108;2024-01-06T08:48:41;54.60;;;30.45;;
21959;SDS011;11144;43.030;25.108;2024-01-06T08:50:14;53.72;;;30.15;;
21959;SDS011;11144;43.030;25.108;2024-01-06T08:51:49;49.33;;;28.08;;
21959;SDS011;11144;43.030;25.108;2024-01-06T08:53:22;50.95;;;27.92;;
21959;SDS011;11144;43.030;25.108;2024-01-06T08:54:57;59.42;;;31.83;;
21959;SDS011;11144;43.030;25.108;2024-01-06T08:56:29;64.55;;;35.33;;